Time;durP1;ratioP1;P1;durP2;ratioP2;P2;SDS_P1;SDS_P2;PMS_P1;PMS_P2;Temp;Humidity;BMP_temperature;BMP_pressure;BME280_temperature;BME280_humidity;BME280_pressure;Samples;Min_cycle;Max_cycle;Signal;HPM_P1;HPM_P2
2022/10/12 00:01:32;;;;;;;17.93;16.13;;;;;;;;;;5091472;28;20473;-76
2022/10/12 00:04:01;;;;;;;23.13;15.80;;;;;;;;;;5071122;28;20969;-76
2022/10/12 00:06:28;;;;;;;18.33;15.97;;;;;;;;;;5071945;28;20444;-76
2022/10/12 00:08:55;;;;;;;16.97;15.10;;;;;;;;;;5071376;28;20476;-76
2022/10/12 00:11:23;;;;;;;17.13;15.33;;;;;;;;;;5071894;28;20464;-76
2022/10/12 00:13:52;;;;;;;18.13;15.80;;;;;;;;;;5070988;28;21064;-76
2022/10/12 00:16:20;;;;;;;18.83;16.83;;;;;;;;;;5071365;28;20444;-76
2022/10/12 00:18:51;;;;;;;20.17;14.43;;;;;;;;;;5071713;28;20440;-76
2022/10/12 00:21:19;;;;;;;17.43;15.63;;;;;;;;;;5067663;28;20456;-77
2022/10/12 00:23:47;;;;;;;17.13;15.53;;;;;;;;;;5060981;28;20452;-76
2022/10/12 00:26:15;;;;;;;24.40;16.17;;;;;;;;;;5064126;28;20460;-76
2022/10/12 00:28:42;;;;;;;19.40;16.20;;;;;;;;;;5069426;28;20481;-77
2022/10/12 00:31:11;;;;;;;22.93;18.83;;;;;;;;;;5069085;28;20461;-75
2022/10/12 00:33:39;;;;;;;19.80;17.97;;;;;;;;;;5070890;28;20452;-77
2022/10/12 00:36:13;;;;;;;20.30;18.07;;;;;;;;;;5071316;28;20947;-77
2022/10/12 00:38:42;;;;;;;19.77;17.00;;;;;;;;;;5070909;28;20451;-77
2022/10/12 00:41:09;;;;;;;20.30;16.10;;;;;;;;;;5071115;28;20987;-76
2022/10/12 00:43:38;;;;;;;20.17;17.13;;;;;;;;;;5070931;28;20445;-76
2022/10/12 00:46:07;;;;;;;21.30;16.90;;;;;;;;;;5071115;28;20447;-76
2022/10/12 00:48:34;;;;;;;18.13;16.17;;;;;;;;;;5072704;28;20512;-77
2022/10/12 00:51:03;;;;;;;18.37;16.40;;;;;;;;;;5070978;28;20464;-76
2022/10/12 00:53:32;;;;;;;20.03;17.93;;;;;;;;;;5070941;28;20440;-76
2022/10/12 00:56:01;;;;;;;23.30;17.53;;;;;;;;;;5075537;28;20439;-75
2022/10/12 00:58:30;;;;;;;20.93;16.83;;;;;;;;;;5094960;28;20428;-76
2022/10/12 01:00:57;;;;;;;23.43;17.73;;;;;;;;;;5095790;28;20476;-77
2022/10/12 01:03:25;;;;;;;21.53;17.07;;;;;;;;;;5094845;28;20443;-76
2022/10/12 01:05:52;;;;;;;19.43;17.47;;;;;;;;;;5095328;28;20419;-76
2022/10/12 01:08:19;;;;;;;19.90;17.90;;;;;;;;;;5094902;28;20471;-77
2022/10/12 01:10:46;;;;;;;19.67;17.60;;;;;;;;;;5080520;28;20467;-77
2022/10/12 01:13:14;;;;;;;21.17;17.87;;;;;;;;;;5070496;28;20800;-76
2022/10/12 01:15:44;;;;;;;22.30;19.23;;;;;;;;;;5071048;28;20535;-76
2022/10/12 01:18:18;;;;;;;22.97;18.50;;;;;;;;;;5070557;28;20444;-76
2022/10/12 01:21:00;;;;;;;21.87;19.67;;;;;;;;;;5070534;28;20467;-76
2022/10/12 01:23:37;;;;;;;20.70;18.50;;;;;;;;;;5069959;28;20449;-76
2022/10/12 01:26:16;;;;;;;20.03;18.03;;;;;;;;;;5071679;28;20444;-76
2022/10/12 01:28:49;;;;;;;19.83;17.43;;;;;;;;;;5070556;28;20960;-76
2022/10/12 01:31:22;;;;;;;21.53;19.43;;;;;;;;;;5070829;28;20460;-76
2022/10/12 01:33:51;;;;;;;19.63;17.60;;;;;;;;;;5075450;28;20527;-76
2022/10/12 01:36:21;;;;;;;20.50;18.10;;;;;;;;;;5077946;28;20444;-76
2022/10/12 01:38:52;;;;;;;19.53;16.90;;;;;;;;;;5078581;28;20437;-76
2022/10/12 01:41:22;;;;;;;19.30;17.30;;;;;;;;;;5082014;28;20464;-76
2022/10/12 01:43:51;;;;;;;21.43;18.00;;;;;;;;;;5080615;28;20783;-77
2022/10/12 01:46:37;;;;;;;20.60;17.87;;;;;;;;;;5073525;28;20444;-76
2022/10/12 01:49:06;;;;;;;19.70;17.60;;;;;;;;;;5067572;28;20484;-75
2022/10/12 01:51:36;;;;;;;19.83;17.60;;;;;;;;;;5067689;28;20469;-76
2022/10/12 01:54:08;;;;;;;19.83;17.87;;;;;;;;;;5067377;28;20951;-76
2022/10/12 01:56:40;;;;;;;22.20;17.63;;;;;;;;;;5068600;28;20500;-76
2022/10/12 01:59:11;;;;;;;20.57;18.40;;;;;;;;;;5068038;28;20444;-76
2022/10/12 02:01:41;;;;;;;21.87;19.10;;;;;;;;;;5067663;28;20476;-76
2022/10/12 02:04:12;;;;;;;21.03;18.93;;;;;;;;;;5066893;28;20440;-75
2022/10/12 02:06:43;;;;;;;21.13;16.90;;;;;;;;;;5067411;28;20429;-76
2022/10/12 02:09:15;;;;;;;20.77;16.97;;;;;;;;;;5067539;28;20461;-76
2022/10/12 02:11:43;;;;;;;21.97;18.50;;;;;;;;;;5068625;28;20464;-76
2022/10/12 02:14:13;;;;;;;20.80;18.20;;;;;;;;;;5070449;28;20947;-76
2022/10/12 02:16:42;;;;;;;21.20;18.27;;;;;;;;;;5071359;28;20795;-75
2022/10/12 02:19:13;;;;;;;22.53;17.20;;;;;;;;;;5070923;28;20448;-76
2022/10/12 02:21:40;;;;;;;23.23;18.53;;;;;;;;;;5071097;28;20467;-76
2022/10/12 02:24:08;;;;;;;21.53;17.90;;;;;;;;;;5070835;28;20447;-75
2022/10/12 02:26:37;;;;;;;19.30;17.20;;;;;;;;;;5071263;28;20444;-77
2022/10/12 02:29:06;;;;;;;22.60;18.47;;;;;;;;;;5070983;28;20509;-76
2022/10/12 02:31:36;;;;;;;23.43;18.67;;;;;;;;;;5070817;28;20999;-77
2022/10/12 02:34:05;;;;;;;20.80;17.50;;;;;;;;;;5070911;28;20444;-77
2022/10/12 02:36:37;;;;;;;20.47;18.27;;;;;;;;;;5071443;28;20464;-76
2022/10/12 02:39:06;;;;;;;21.37;19.27;;;;;;;;;;5071873;28;20425;-76
2022/10/12 02:41:36;;;;;;;22.80;18.93;;;;;;;;;;5071248;28;20977;-76
2022/10/12 02:44:05;;;;;;;20.50;18.30;;;;;;;;;;5071211;28;20459;-76
2022/10/12 02:46:34;;;;;;;21.47;19.33;;;;;;;;;;5071486;28;21175;-77
2022/10/12 02:49:01;;;;;;;24.77;19.80;;;;;;;;;;5070667;28;20562;-75
2022/10/12 02:51:29;;;;;;;20.60;18.10;;;;;;;;;;5070814;28;20475;-75
2022/10/12 02:53:57;;;;;;;23.37;19.40;;;;;;;;;;5070373;28;20445;-77
2022/10/12 02:56:24;;;;;;;22.87;20.47;;;;;;;;;;5071335;28;20445;-75
2022/10/12 02:58:51;;;;;;;24.40;20.23;;;;;;;;;;5071522;28;20443;-75
2022/10/12 03:01:18;;;;;;;24.17;20.87;;;;;;;;;;5071694;28;20465;-76
2022/10/12 03:03:46;;;;;;;25.20;21.63;;;;;;;;;;5071548;28;20825;-76
2022/10/12 03:06:13;;;;;;;27.30;21.20;;;;;;;;;;5072666;28;20479;-75
2022/10/12 03:08:40;;;;;;;25.00;20.17;;;;;;;;;;5072522;28;20451;-75
2022/10/12 03:11:12;;;;;;;23.20;20.70;;;;;;;;;;5073759;28;20472;-76
2022/10/12 03:13:39;;;;;;;25.23;20.50;;;;;;;;;;5070487;28;20437;-77
2022/10/12 03:16:08;;;;;;;24.47;20.47;;;;;;;;;;5070037;28;20813;-76
2022/10/12 03:18:35;;;;;;;24.10;19.20;;;;;;;;;;5070110;28;20445;-75
2022/10/12 03:21:02;;;;;;;22.17;19.87;;;;;;;;;;5070328;28;20465;-75
2022/10/12 03:23:29;;;;;;;21.27;19.03;;;;;;;;;;5068712;28;20453;-76
2022/10/12 03:25:56;;;;;;;22.40;20.00;;;;;;;;;;5069967;28;20444;-76
2022/10/12 03:28:25;;;;;;;22.10;19.77;;;;;;;;;;5070558;28;20445;-76
2022/10/12 03:30:52;;;;;;;24.97;20.83;;;;;;;;;;5070028;28;20490;-75
2022/10/12 03:33:19;;;;;;;23.43;19.67;;;;;;;;;;5069981;28;20448;-75
2022/10/12 03:35:46;;;;;;;23.87;20.30;;;;;;;;;;5070255;28;20476;-75
2022/10/12 03:38:14;;;;;;;25.03;20.43;;;;;;;;;;5070090;28;20445;-76
2022/10/12 03:40:44;;;;;;;21.40;19.20;;;;;;;;;;5070231;28;20483;-76
2022/10/12 03:43:11;;;;;;;20.80;18.90;;;;;;;;;;5069714;28;20466;-75
2022/10/12 03:45:40;;;;;;;21.20;18.87;;;;;;;;;;5069499;28;21002;-75
2022/10/12 03:48:07;;;;;;;20.90;18.70;;;;;;;;;;5069751;28;20886;-75
2022/10/12 03:50:35;;;;;;;22.47;18.13;;;;;;;;;;5069726;28;20494;-75
2022/10/12 03:53:02;;;;;;;22.27;19.10;;;;;;;;;;5068826;28;20464;-75
2022/10/12 03:55:29;;;;;;;22.50;19.50;;;;;;;;;;5069481;28;20452;-75
2022/10/12 03:57:56;;;;;;;22.30;19.50;;;;;;;;;;5069448;28;21300;-76
2022/10/12 04:00:23;;;;;;;21.87;19.10;;;;;;;;;;5069265;28;20465;-75
2022/10/12 04:02:51;;;;;;;25.00;18.93;;;;;;;;;;5068763;28;20445;-75
2022/10/12 04:05:18;;;;;;;22.07;19.00;;;;;;;;;;5069056;28;20453;-76
2022/10/12 04:07:45;;;;;;;20.30;18.40;;;;;;;;;;5069260;28;20447;-75
2022/10/12 04:10:13;;;;;;;22.80;19.20;;;;;;;;;;5068955;28;20488;-75
2022/10/12 04:12:40;;;;;;;22.40;18.97;;;;;;;;;;5068295;28;20441;-75
2022/10/12 04:15:08;;;;;;;26.07;23.27;;;;;;;;;;5069407;28;20515;-76
2022/10/12 04:17:35;;;;;;;25.23;22.10;;;;;;;;;;5069159;28;20445;-76
2022/10/12 04:20:03;;;;;;;21.50;19.30;;;;;;;;;;5068638;28;20539;-75
2022/10/12 04:22:30;;;;;;;24.93;19.03;;;;;;;;;;5068615;28;20806;-75
2022/10/12 04:24:57;;;;;;;26.67;19.80;;;;;;;;;;5069409;28;20539;-75
2022/10/12 04:27:24;;;;;;;22.27;19.97;;;;;;;;;;5068964;28;20459;-75
2022/10/12 04:29:52;;;;;;;21.77;19.40;;;;;;;;;;5067353;28;20484;-75
2022/10/12 04:32:19;;;;;;;29.00;22.73;;;;;;;;;;5068155;28;20444;-76
2022/10/12 04:34:46;;;;;;;24.33;20.57;;;;;;;;;;5064329;28;20444;-75
2022/10/12 04:37:14;;;;;;;27.03;21.13;;;;;;;;;;5068923;28;20433;-76
2022/10/12 04:39:41;;;;;;;28.27;22.33;;;;;;;;;;5068787;28;20448;-76
2022/10/12 04:42:08;;;;;;;26.60;22.50;;;;;;;;;;5069428;28;20440;-76
2022/10/12 04:44:35;;;;;;;29.37;22.90;;;;;;;;;;5068194;28;20432;-75
2022/10/12 04:47:03;;;;;;;24.87;22.13;;;;;;;;;;5068856;28;20447;-76
2022/10/12 04:49:30;;;;;;;29.40;22.57;;;;;;;;;;5068255;28;20480;-76
2022/10/12 04:51:57;;;;;;;28.23;21.90;;;;;;;;;;5069436;28;20447;-76
2022/10/12 04:54:25;;;;;;;30.73;21.30;;;;;;;;;;5068065;28;20441;-76
2022/10/12 04:56:52;;;;;;;26.57;21.43;;;;;;;;;;5068537;28;20456;-76
2022/10/12 04:59:19;;;;;;;26.30;22.13;;;;;;;;;;5068976;28;20448;-76
2022/10/12 05:01:46;;;;;;;24.83;20.67;;;;;;;;;;5068096;28;20465;-76
2022/10/12 05:04:13;;;;;;;25.73;21.77;;;;;;;;;;5068216;28;20471;-77
2022/10/12 05:06:40;;;;;;;29.33;22.67;;;;;;;;;;5068583;28;20918;-77
2022/10/12 05:09:07;;;;;;;24.23;20.40;;;;;;;;;;5068233;28;20444;-77
2022/10/12 05:11:36;;;;;;;24.07;21.60;;;;;;;;;;5064478;28;20853;-77
2022/10/12 05:14:03;;;;;;;26.57;20.87;;;;;;;;;;5047408;28;20445;-78
2022/10/12 05:16:30;;;;;;;28.90;21.97;;;;;;;;;;5048705;28;20484;-77
2022/10/12 05:18:57;;;;;;;24.37;21.90;;;;;;;;;;5051366;28;20445;-78
2022/10/12 05:21:24;;;;;;;26.97;22.80;;;;;;;;;;5053008;28;20465;-76
2022/10/12 05:23:52;;;;;;;29.10;21.73;;;;;;;;;;5052783;28;20442;-76
2022/10/12 05:26:19;;;;;;;28.03;22.57;;;;;;;;;;5052559;28;20452;-77
2022/10/12 05:28:47;;;;;;;25.90;21.80;;;;;;;;;;5052940;28;20442;-78
2022/10/12 05:31:14;;;;;;;24.77;21.80;;;;;;;;;;5056371;28;20489;-77
2022/10/12 05:33:41;;;;;;;31.23;25.60;;;;;;;;;;5047626;28;20454;-76
2022/10/12 05:36:09;;;;;;;29.43;23.13;;;;;;;;;;5048320;28;20445;-76
2022/10/12 05:38:36;;;;;;;23.97;21.10;;;;;;;;;;5048350;28;20449;-76
2022/10/12 05:41:03;;;;;;;22.90;20.47;;;;;;;;;;5055774;28;20454;-75
2022/10/12 05:43:30;;;;;;;24.87;20.10;;;;;;;;;;5058273;28;20925;-75
2022/10/12 05:45:58;;;;;;;26.70;21.00;;;;;;;;;;5061113;28;20443;-76
2022/10/12 05:48:25;;;;;;;30.47;20.87;;;;;;;;;;5066346;28;20453;-75
2022/10/12 05:50:53;;;;;;;27.23;22.20;;;;;;;;;;5065118;28;20491;-75
2022/10/12 05:53:20;;;;;;;27.20;21.67;;;;;;;;;;5059364;28;20473;-76
2022/10/12 05:55:57;;;;;;;29.53;21.90;;;;;;;;;;5060522;28;20463;-75
2022/10/12 05:58:25;;;;;;;24.97;22.17;;;;;;;;;;5054013;28;20436;-76
2022/10/12 06:00:52;;;;;;;30.43;22.33;;;;;;;;;;5059930;28;20460;-76
2022/10/12 06:03:20;;;;;;;24.90;22.30;;;;;;;;;;5070154;28;20560;-76
2022/10/12 06:05:48;;;;;;;24.30;21.70;;;;;;;;;;5071909;28;20433;-76
2022/10/12 06:08:15;;;;;;;25.63;20.60;;;;;;;;;;5071669;28;20444;-75
2022/10/12 06:10:44;;;;;;;27.50;21.77;;;;;;;;;;5072157;28;20487;-76
2022/10/12 06:13:11;;;;;;;30.37;21.10;;;;;;;;;;5054200;28;20444;-76
2022/10/12 06:15:38;;;;;;;27.93;21.37;;;;;;;;;;5052318;28;20823;-76
2022/10/12 06:18:05;;;;;;;23.20;20.77;;;;;;;;;;5051827;28;20449;-76
2022/10/12 06:20:34;;;;;;;25.10;21.83;;;;;;;;;;5051932;28;20477;-76
2022/10/12 06:23:01;;;;;;;27.17;21.73;;;;;;;;;;5050983;28;20449;-77
2022/10/12 06:25:28;;;;;;;25.83;21.87;;;;;;;;;;5052052;28;20481;-77
2022/10/12 06:27:55;;;;;;;28.20;21.63;;;;;;;;;;5051955;28;20442;-76
2022/10/12 06:30:22;;;;;;;30.70;22.40;;;;;;;;;;5051576;28;20504;-76
2022/10/12 06:32:49;;;;;;;30.97;22.40;;;;;;;;;;5051068;28;20793;-77
2022/10/12 06:35:16;;;;;;;28.07;22.50;;;;;;;;;;5051519;28;20472;-76
2022/10/12 06:37:50;;;;;;;25.10;22.50;;;;;;;;;;5051768;28;20445;-77
2022/10/12 06:40:17;;;;;;;27.67;21.80;;;;;;;;;;5051637;28;20465;-76
2022/10/12 06:42:44;;;;;;;24.50;21.10;;;;;;;;;;5050843;28;20452;-75
2022/10/12 06:45:11;;;;;;;24.17;21.23;;;;;;;;;;5051432;28;20456;-76
2022/10/12 06:47:38;;;;;;;37.67;24.30;;;;;;;;;;5051253;28;20456;-76
2022/10/12 06:50:06;;;;;;;34.43;21.20;;;;;;;;;;5051421;28;21008;-76
2022/10/12 06:52:33;;;;;;;23.83;20.53;;;;;;;;;;5050575;28;20446;-75
2022/10/12 06:55:01;;;;;;;23.77;21.27;;;;;;;;;;5051204;28;20457;-76
2022/10/12 06:57:29;;;;;;;28.60;21.80;;;;;;;;;;5050500;28;20445;-76
2022/10/12 06:59:56;;;;;;;32.60;21.10;;;;;;;;;;5050821;28;20465;-76
2022/10/12 07:02:23;;;;;;;26.87;21.20;;;;;;;;;;5050935;28;20467;-76
2022/10/12 07:04:50;;;;;;;25.00;20.63;;;;;;;;;;5052200;28;20486;-77
2022/10/12 07:07:18;;;;;;;27.93;21.00;;;;;;;;;;5050910;28;20949;-77
2022/10/12 07:09:45;;;;;;;27.50;21.63;;;;;;;;;;5050241;28;20812;-76
2022/10/12 07:12:13;;;;;;;24.70;21.20;;;;;;;;;;5050909;28;20448;-76
2022/10/12 07:14:42;;;;;;;24.57;21.37;;;;;;;;;;5050440;28;20446;-76
2022/10/12 07:17:09;;;;;;;31.83;22.30;;;;;;;;;;5050826;28;20815;-76
2022/10/12 07:19:36;;;;;;;31.00;22.47;;;;;;;;;;5057296;28;20448;-76
2022/10/12 07:22:03;;;;;;;33.03;25.17;;;;;;;;;;5070390;28;20948;-77
2022/10/12 07:24:35;;;;;;;29.80;24.40;;;;;;;;;;5070012;28;20468;-76
2022/10/12 07:27:02;;;;;;;27.67;22.93;;;;;;;;;;5070579;28;20456;-76
2022/10/12 07:29:31;;;;;;;28.70;23.97;;;;;;;;;;5070599;28;20951;-76
2022/10/12 07:31:58;;;;;;;24.57;21.17;;;;;;;;;;5070404;28;20483;-76
2022/10/12 07:34:26;;;;;;;27.00;23.13;;;;;;;;;;5069622;28;20449;-77
2022/10/12 07:36:53;;;;;;;30.73;23.00;;;;;;;;;;5070573;28;20444;-76
2022/10/12 07:39:21;;;;;;;30.77;23.87;;;;;;;;;;5069765;28;20444;-76
2022/10/12 07:41:48;;;;;;;27.17;22.77;;;;;;;;;;5070000;28;20491;-77
2022/10/12 07:44:15;;;;;;;28.53;23.40;;;;;;;;;;5071286;28;20451;-77
2022/10/12 07:46:43;;;;;;;28.50;22.67;;;;;;;;;;5072915;28;20924;-76
2022/10/12 07:49:12;;;;;;;32.00;23.43;;;;;;;;;;5071975;28;20468;-76
2022/10/12 07:51:39;;;;;;;30.57;24.00;;;;;;;;;;5071846;28;20488;-76
2022/10/12 07:54:06;;;;;;;37.33;24.37;;;;;;;;;;5071078;28;20449;-76
2022/10/12 07:56:33;;;;;;;33.40;24.23;;;;;;;;;;5071826;28;20502;-77
2022/10/12 07:59:01;;;;;;;29.53;23.63;;;;;;;;;;5071963;28;20440;-77
2022/10/12 08:01:29;;;;;;;27.87;24.57;;;;;;;;;;5072154;28;20476;-75
2022/10/12 08:03:58;;;;;;;27.93;24.67;;;;;;;;;;5071347;28;20505;-76
2022/10/12 08:06:27;;;;;;;31.40;25.43;;;;;;;;;;5071735;28;20451;-76
2022/10/12 08:08:54;;;;;;;29.97;25.33;;;;;;;;;;5071475;28;20444;-76
2022/10/12 08:11:22;;;;;;;29.43;26.23;;;;;;;;;;5071460;28;20481;-76
2022/10/12 08:13:49;;;;;;;29.50;25.03;;;;;;;;;;5071569;28;20444;-76
2022/10/12 08:16:17;;;;;;;30.43;25.33;;;;;;;;;;5072045;28;20441;-77
2022/10/12 08:18:44;;;;;;;30.60;25.90;;;;;;;;;;5071605;28;20445;-76
2022/10/12 08:21:13;;;;;;;29.20;24.80;;;;;;;;;;5071386;28;20594;-76
2022/10/12 08:23:40;;;;;;;38.97;27.07;;;;;;;;;;5072268;28;20440;-75
2022/10/12 08:26:08;;;;;;;38.00;25.77;;;;;;;;;;5077784;28;20511;-75
2022/10/12 08:28:36;;;;;;;30.77;25.97;;;;;;;;;;5083311;28;20447;-75
2022/10/12 08:31:06;;;;;;;31.63;25.83;;;;;;;;;;5078961;28;20476;-76
2022/10/12 08:33:33;;;;;;;35.10;26.20;;;;;;;;;;5079016;28;20470;-76
2022/10/12 08:36:02;;;;;;;40.33;26.33;;;;;;;;;;5078348;28;20475;-75
2022/10/12 08:38:31;;;;;;;31.67;26.13;;;;;;;;;;5070774;28;20449;-76
2022/10/12 08:41:01;;;;;;;28.97;25.70;;;;;;;;;;5071486;28;20461;-75
2022/10/12 08:43:32;;;;;;;28.57;24.80;;;;;;;;;;5070974;28;20435;-75
2022/10/12 08:46:01;;;;;;;32.80;26.80;;;;;;;;;;5071275;28;20449;-75
2022/10/12 08:48:29;;;;;;;29.60;26.10;;;;;;;;;;5070705;28;20456;-76
2022/10/12 08:51:01;;;;;;;29.10;24.53;;;;;;;;;;5074433;28;20485;-76
2022/10/12 08:53:30;;;;;;;32.17;26.23;;;;;;;;;;5071206;28;20472;-77
2022/10/12 08:56:00;;;;;;;29.07;25.80;;;;;;;;;;5068692;28;20854;-76
2022/10/12 08:58:30;;;;;;;27.97;24.00;;;;;;;;;;5066909;28;20609;-75
2022/10/12 09:00:59;;;;;;;29.77;22.90;;;;;;;;;;5070317;28;20833;-76
2022/10/12 09:03:40;;;;;;;27.80;24.80;;;;;;;;;;5069627;28;21225;-76
2022/10/12 09:06:11;;;;;;;31.80;26.20;;;;;;;;;;5070631;28;20444;-76
2022/10/12 09:08:45;;;;;;;27.47;24.50;;;;;;;;;;5064817;28;20448;-76
2022/10/12 09:11:23;;;;;;;28.63;24.30;;;;;;;;;;5066800;28;20476;-76
2022/10/12 09:13:55;;;;;;;29.17;25.97;;;;;;;;;;5049492;28;20449;-76
2022/10/12 09:16:24;;;;;;;29.40;23.57;;;;;;;;;;5055399;28;20444;-75
2022/10/12 09:18:53;;;;;;;29.20;23.27;;;;;;;;;;5062741;28;20992;-76
2022/10/12 09:21:22;;;;;;;29.60;24.70;;;;;;;;;;5063874;28;20551;-76
2022/10/12 09:23:49;;;;;;;25.43;22.73;;;;;;;;;;5064152;28;20448;-76
2022/10/12 09:26:18;;;;;;;31.07;23.53;;;;;;;;;;5066893;28;20453;-75
2022/10/12 09:28:46;;;;;;;29.17;23.40;;;;;;;;;;5065364;28;20815;-76
2022/10/12 09:31:23;;;;;;;28.33;21.27;;;;;;;;;;5069517;28;20480;-76
2022/10/12 09:33:52;;;;;;;27.90;21.73;;;;;;;;;;5069684;28;20440;-75
2022/10/12 09:36:20;;;;;;;22.87;20.43;;;;;;;;;;5070251;28;20433;-75
2022/10/12 09:38:48;;;;;;;31.47;17.37;;;;;;;;;;5069690;28;20440;-76
2022/10/12 09:41:20;;;;;;;25.33;16.13;;;;;;;;;;5070316;28;20808;-76
2022/10/12 09:43:47;;;;;;;23.67;15.60;;;;;;;;;;5069515;28;20506;-76
2022/10/12 09:46:16;;;;;;;18.07;16.17;;;;;;;;;;5069974;28;20448;-76
2022/10/12 09:48:57;;;;;;;24.60;18.27;;;;;;;;;;5069771;28;20944;-76
2022/10/12 09:51:24;;;;;;;23.77;17.47;;;;;;;;;;5069863;28;20476;-77
2022/10/12 09:53:53;;;;;;;20.47;16.63;;;;;;;;;;5069775;28;20474;-76
2022/10/12 09:56:28;;;;;;;18.50;16.47;;;;;;;;;;5069817;28;20440;-75
2022/10/12 09:58:57;;;;;;;18.30;15.70;;;;;;;;;;5070301;28;20449;-75
2022/10/12 10:01:24;;;;;;;19.60;15.50;;;;;;;;;;5069744;28;20475;-76
2022/10/12 10:04:08;;;;;;;16.50;14.80;;;;;;;;;;5069129;28;20452;-76
2022/10/12 10:06:35;;;;;;;16.07;14.37;;;;;;;;;;5070081;28;20491;-75
2022/10/12 10:09:02;;;;;;;16.97;14.63;;;;;;;;;;5069689;28;20441;-75
2022/10/12 10:11:31;;;;;;;22.10;16.50;;;;;;;;;;5069706;28;20480;-75
2022/10/12 10:14:00;;;;;;;16.93;15.03;;;;;;;;;;5063835;28;20583;-75
2022/10/12 10:16:28;;;;;;;19.93;14.50;;;;;;;;;;5069571;28;20820;-75
2022/10/12 10:18:56;;;;;;;19.30;14.00;;;;;;;;;;5070198;28;20820;-76
2022/10/12 10:21:29;;;;;;;14.73;13.10;;;;;;;;;;5069942;28;20457;-75
2022/10/12 10:23:57;;;;;;;33.20;16.47;;;;;;;;;;5069697;28;20448;-75
2022/10/12 10:26:25;;;;;;;14.50;12.83;;;;;;;;;;5070519;28;20515;-76
2022/10/12 10:28:56;;;;;;;16.70;13.10;;;;;;;;;;5070896;28;20449;-76
2022/10/12 10:31:26;;;;;;;18.43;12.47;;;;;;;;;;5070404;28;20484;-76
2022/10/12 10:34:14;;;;;;;14.47;12.50;;;;;;;;;;5072478;28;20467;-76
2022/10/12 10:36:45;;;;;;;13.47;12.17;;;;;;;;;;5068912;28;20452;-77
2022/10/12 10:39:18;;;;;;;16.03;13.60;;;;;;;;;;5073565;28;20448;-75
2022/10/12 10:41:45;;;;;;;15.63;13.37;;;;;;;;;;5071904;28;20460;-76
2022/10/12 10:44:24;;;;;;;18.00;14.10;;;;;;;;;;5066006;28;20448;-76
2022/10/12 10:46:52;;;;;;;28.37;16.30;;;;;;;;;;5073121;28;20440;-75
2022/10/12 10:49:24;;;;;;;21.70;13.80;;;;;;;;;;5073318;28;20471;-75
2022/10/12 10:51:53;;;;;;;19.60;14.33;;;;;;;;;;5073345;28;20480;-77
2022/10/12 10:54:26;;;;;;;21.53;14.30;;;;;;;;;;5073076;28;20823;-76
2022/10/12 10:56:56;;;;;;;19.80;13.30;;;;;;;;;;5071846;28;20456;-76
2022/10/12 10:59:33;;;;;;;20.40;12.73;;;;;;;;;;5070616;28;20633;-76
2022/10/12 11:02:02;;;;;;;24.13;13.73;;;;;;;;;;5069465;28;20451;-76
2022/10/12 11:04:30;;;;;;;15.17;12.10;;;;;;;;;;5059652;28;20824;-76
2022/10/12 11:06:59;;;;;;;19.07;12.97;;;;;;;;;;5062743;28;20445;-77
2022/10/12 11:09:29;;;;;;;14.63;11.53;;;;;;;;;;5074153;28;20444;-76
2022/10/12 11:11:58;;;;;;;17.40;11.17;;;;;;;;;;5072986;28;20764;-76
2022/10/12 11:14:29;;;;;;;13.30;11.93;;;;;;;;;;5072354;28;20920;-76
2022/10/12 11:16:58;;;;;;;13.53;12.10;;;;;;;;;;5054865;28;20446;-77
2022/10/12 11:19:30;;;;;;;17.80;12.47;;;;;;;;;;5068095;28;20801;-77
2022/10/12 11:21:59;;;;;;;15.27;11.20;;;;;;;;;;5069569;28;20923;-78
2022/10/12 11:24:37;;;;;;;12.57;11.33;;;;;;;;;;5064264;28;20448;-77
2022/10/12 11:27:08;;;;;;;13.17;11.77;;;;;;;;;;5072238;28;20440;-77
2022/10/12 11:29:37;;;;;;;13.80;12.40;;;;;;;;;;5063762;28;20454;-77
2022/10/12 11:32:06;;;;;;;13.97;12.50;;;;;;;;;;5069016;28;20901;-76
2022/10/12 11:34:37;;;;;;;12.70;11.40;;;;;;;;;;5071988;28;20490;-77
2022/10/12 11:37:12;;;;;;;17.70;12.03;;;;;;;;;;5065547;28;20460;-77
2022/10/12 11:39:42;;;;;;;14.00;11.70;;;;;;;;;;5073774;28;20518;-76
2022/10/12 11:42:12;;;;;;;17.80;11.93;;;;;;;;;;5067842;28;20454;-77
2022/10/12 11:44:42;;;;;;;13.23;11.70;;;;;;;;;;5070899;28;20441;-78
2022/10/12 11:47:15;;;;;;;13.60;11.70;;;;;;;;;;5069074;28;20429;-78
2022/10/12 11:49:49;;;;;;;15.27;11.80;;;;;;;;;;5073294;28;20444;-78
2022/10/12 11:52:17;;;;;;;13.53;11.43;;;;;;;;;;5063209;28;21038;-76
2022/10/12 11:54:48;;;;;;;12.30;10.90;;;;;;;;;;5064873;28;20441;-77
2022/10/12 11:57:17;;;;;;;15.30;10.90;;;;;;;;;;5071748;28;20453;-77
2022/10/12 11:59:48;;;;;;;12.87;10.60;;;;;;;;;;5071898;28;20445;-78
2022/10/12 12:02:18;;;;;;;16.23;11.40;;;;;;;;;;5071482;28;20450;-76
2022/10/12 12:04:46;;;;;;;13.20;11.80;;;;;;;;;;5071282;28;20467;-77
2022/10/12 12:07:32;;;;;;;24.53;12.33;;;;;;;;;;5072235;28;20445;-76
2022/10/12 12:09:59;;;;;;;14.93;12.20;;;;;;;;;;5069599;28;20457;-77
2022/10/12 12:12:27;;;;;;;14.10;12.40;;;;;;;;;;5071805;28;20472;-77
2022/10/12 12:15:03;;;;;;;13.00;11.57;;;;;;;;;;5067957;28;20445;-77
2022/10/12 12:17:32;;;;;;;14.57;11.70;;;;;;;;;;5063306;28;20449;-76
2022/10/12 12:20:00;;;;;;;13.17;11.60;;;;;;;;;;5071419;28;20460;-76
2022/10/12 12:22:28;;;;;;;14.87;11.37;;;;;;;;;;5071794;28;20936;-78
2022/10/12 12:25:04;;;;;;;15.50;12.00;;;;;;;;;;5071254;28;20440;-76
2022/10/12 12:27:33;;;;;;;14.97;10.77;;;;;;;;;;5072492;28;20503;-77
2022/10/12 12:30:00;;;;;;;11.87;10.67;;;;;;;;;;5067351;28;20991;-77
2022/10/12 12:32:40;;;;;;;13.63;10.27;;;;;;;;;;5060483;28;20491;-77
2022/10/12 12:35:19;;;;;;;11.30;10.27;;;;;;;;;;5072705;28;20455;-76
2022/10/12 12:37:46;;;;;;;11.20;9.50;;;;;;;;;;5070158;28;20440;-77
2022/10/12 12:40:21;;;;;;;12.10;10.90;;;;;;;;;;5066254;28;20468;-77
2022/10/12 12:42:48;;;;;;;14.80;9.67;;;;;;;;;;5070188;28;20475;-77
2022/10/12 12:45:39;;;;;;;16.30;10.00;;;;;;;;;;5071003;28;20461;-77
2022/10/12 12:48:08;;;;;;;14.97;10.17;;;;;;;;;;5060447;28;20445;-76
2022/10/12 12:50:38;;;;;;;15.20;9.30;;;;;;;;;;5060834;28;20522;-78
2022/10/12 12:53:06;;;;;;;10.40;9.30;;;;;;;;;;5070458;28;20480;-76
2022/10/12 12:55:47;;;;;;;11.03;9.83;;;;;;;;;;5071337;28;20456;-75
2022/10/12 12:58:24;;;;;;;17.83;9.23;;;;;;;;;;5071880;28;20445;-77
2022/10/12 13:00:57;;;;;;;14.13;9.83;;;;;;;;;;5072342;28;20464;-76
2022/10/12 13:03:34;;;;;;;9.83;8.50;;;;;;;;;;5071207;28;20425;-77
2022/10/12 13:06:21;;;;;;;9.40;7.73;;;;;;;;;;5071370;28;20444;-78
2022/10/12 13:08:55;;;;;;;8.30;7.30;;;;;;;;;;5073560;28;20955;-78
2022/10/12 13:11:37;;;;;;;12.07;7.30;;;;;;;;;;5071280;28;20523;-78
2022/10/12 13:14:10;;;;;;;10.90;8.40;;;;;;;;;;5068884;28;20475;-76
2022/10/12 13:16:47;;;;;;;8.30;6.90;;;;;;;;;;5071552;28;20433;-77
2022/10/12 13:19:14;;;;;;;8.43;7.20;;;;;;;;;;5070480;28;20503;-77
2022/10/12 13:21:44;;;;;;;7.60;6.90;;;;;;;;;;5067358;28;20468;-78
2022/10/12 13:24:15;;;;;;;7.80;7.00;;;;;;;;;;5069872;28;20506;-76
2022/10/12 13:26:44;;;;;;;6.60;5.90;;;;;;;;;;5064294;28;20991;-77
2022/10/12 13:29:17;;;;;;;8.00;6.47;;;;;;;;;;5066052;28;20776;-77
2022/10/12 13:31:47;;;;;;;7.10;6.17;;;;;;;;;;5073330;28;20467;-76
2022/10/12 13:34:17;;;;;;;8.90;6.97;;;;;;;;;;5072879;28;20808;-76
2022/10/12 13:36:51;;;;;;;6.83;6.23;;;;;;;;;;5071010;28;20827;-77
2022/10/12 13:39:21;;;;;;;9.70;6.70;;;;;;;;;;5069570;28;20476;-76
2022/10/12 13:41:49;;;;;;;7.00;6.30;;;;;;;;;;5069749;28;20469;-77
2022/10/12 13:44:20;;;;;;;8.60;6.60;;;;;;;;;;5061056;28;20450;-77
2022/10/12 13:46:49;;;;;;;8.67;6.17;;;;;;;;;;5071353;28;20436;-77
2022/10/12 13:49:18;;;;;;;7.67;6.20;;;;;;;;;;5070009;28;20453;-77
2022/10/12 13:51:45;;;;;;;10.33;6.70;;;;;;;;;;5070298;28;20465;-77
2022/10/12 13:54:16;;;;;;;11.43;6.00;;;;;;;;;;5070129;28;20444;-76
2022/10/12 13:56:46;;;;;;;7.40;6.07;;;;;;;;;;5069573;28;20437;-78
2022/10/12 14:02:44;;;;;;;7.00;6.40;;;;;;;;;;5070035;28;20429;-77
2022/10/12 14:08:00;;;;;;;6.73;6.03;;;;;;;;;;5045311;28;20452;-77
2022/10/12 14:10:29;;;;;;;7.40;6.50;;;;;;;;;;5052986;28;20472;-77
2022/10/12 14:12:58;;;;;;;7.53;6.73;;;;;;;;;;5067006;28;20563;-76
2022/10/12 14:15:26;;;;;;;7.50;6.80;;;;;;;;;;5074138;28;20440;-78
2022/10/12 14:17:53;;;;;;;7.90;5.30;;;;;;;;;;5073517;28;20452;-78
2022/10/12 14:20:27;;;;;;;7.93;7.13;;;;;;;;;;5073449;28;20971;-80
2022/10/12 14:22:55;;;;;;;6.80;6.20;;;;;;;;;;5073697;28;20444;-78
2022/10/12 14:25:24;;;;;;;10.93;7.50;;;;;;;;;;5073360;28;20440;-78
2022/10/12 14:27:54;;;;;;;8.30;7.07;;;;;;;;;;5072882;28;20440;-78
2022/10/12 14:30:23;;;;;;;7.80;6.87;;;;;;;;;;5074320;28;20496;-78
2022/10/12 14:32:51;;;;;;;10.27;6.87;;;;;;;;;;5088931;28;20902;-78
2022/10/12 14:35:22;;;;;;;8.93;6.67;;;;;;;;;;5094363;28;20451;-76
2022/10/12 14:37:50;;;;;;;7.13;5.60;;;;;;;;;;5094340;28;20795;-78